Time;durP1;ratioP1;P1;durP2;ratioP2;P2;SDS_P1;SDS_P2;PMS_P1;PMS_P2;Temp;Humidity;BMP_temperature;BMP_pressure;BME280_temperature;BME280_humidity;BME280_pressure;Samples;Min_cycle;Max_cycle;Signal;HPM_P1;HPM_P2
2022/06/09 00:01:26;;;;;;;2.35;1.10;;;;;;;;;;5004874;28;20051;-49
2022/06/09 00:04:03;;;;;;;1.70;0.93;;;;;;;;;;4992807;28;20388;-49
2022/06/09 00:06:48;;;;;;;4.65;1.17;;;;;;;;;;5010607;28;20599;-54
2022/06/09 00:09:15;;;;;;;2.47;1.33;;;;;;;;;;4997530;28;20080;-49
2022/06/09 00:11:45;;;;;;;1.77;1.20;;;;;;;;;;5008798;28;20042;-52
2022/06/09 00:14:11;;;;;;;1.55;1.02;;;;;;;;;;5010758;28;20092;-49
2022/06/09 00:16:37;;;;;;;1.23;0.95;;;;;;;;;;5010458;28;20053;-52
2022/06/09 00:19:05;;;;;;;1.65;1.02;;;;;;;;;;5010191;28;20471;-51
2022/06/09 00:21:31;;;;;;;1.23;0.82;;;;;;;;;;5010589;28;20145;-56
2022/06/09 00:23:58;;;;;;;2.03;1.00;;;;;;;;;;4988677;28;20061;-49
2022/06/09 00:26:23;;;;;;;;;;;;;;;;;;5010270;28;20107;-49
2022/06/09 00:28:50;;;;;;;1.40;1.05;;;;;;;;;;5009816;28;19925;-51
2022/06/09 00:31:16;;;;;;;2.22;1.27;;;;;;;;;;5010718;28;20073;-50
2022/06/09 00:33:42;;;;;;;1.42;1.08;;;;;;;;;;4999577;28;20518;-49
2022/06/09 00:36:08;;;;;;;;;;;;;;;;;;4990900;28;20391;-52
2022/06/09 00:38:34;;;;;;;7.40;1.50;;;;;;;;;;5008370;28;19918;-56
2022/06/09 00:41:00;;;;;;;1.58;1.02;;;;;;;;;;5007403;28;20042;-49
2022/06/09 00:43:30;;;;;;;2.25;1.33;;;;;;;;;;5010414;28;20111;-52
2022/06/09 00:46:05;;;;;;;1.85;1.20;;;;;;;;;;4994441;28;20046;-49
2022/06/09 00:48:41;;;;;;;1.38;1.08;;;;;;;;;;4991056;28;20078;-49
2022/06/09 00:51:18;;;;;;;2.10;1.43;;;;;;;;;;4990777;28;20053;-49
2022/06/09 00:53:45;;;;;;;1.80;1.17;;;;;;;;;;4990367;28;20507;-52
2022/06/09 00:56:14;;;;;;;2.83;0.93;;;;;;;;;;4990508;28;20363;-50
2022/06/09 00:58:41;;;;;;;1.55;1.20;;;;;;;;;;5009850;28;20074;-51
2022/06/09 01:01:08;;;;;;;1.55;0.85;;;;;;;;;;5010568;28;20129;-49
2022/06/09 01:03:40;;;;;;;1.25;1.00;;;;;;;;;;5010298;28;20046;-50
2022/06/09 01:06:08;;;;;;;2.60;1.00;;;;;;;;;;4994620;28;20052;-49
2022/06/09 01:08:35;;;;;;;2.20;0.95;;;;;;;;;;4993007;28;20082;-49
2022/06/09 01:11:03;;;;;;;1.40;0.90;;;;;;;;;;5000204;28;20042;-51
2022/06/09 01:13:31;;;;;;;2.35;0.93;;;;;;;;;;5014409;28;20052;-52
2022/06/09 01:16:00;;;;;;;1.40;1.00;;;;;;;;;;5007132;28;20047;-48
2022/06/09 01:18:49;;;;;;;1.60;0.95;;;;;;;;;;4994817;28;20081;-49
2022/06/09 01:21:18;;;;;;;1.55;1.17;;;;;;;;;;4994704;28;20720;-52
2022/06/09 01:23:53;;;;;;;1.73;1.15;;;;;;;;;;4994211;28;20050;-49
2022/06/09 01:26:22;;;;;;;1.75;0.80;;;;;;;;;;4994177;28;20050;-49
2022/06/09 01:29:06;;;;;;;1.67;0.88;;;;;;;;;;5010106;28;20458;-49
2022/06/09 01:31:32;;;;;;;1.13;1.02;;;;;;;;;;5014201;28;20486;-53
2022/06/09 01:34:07;;;;;;;2.15;1.15;;;;;;;;;;5013218;28;20053;-51
2022/06/09 01:36:36;;;;;;;2.33;0.98;;;;;;;;;;5013942;28;20403;-52
2022/06/09 01:39:03;;;;;;;1.30;0.80;;;;;;;;;;5012517;28;20045;-52
2022/06/09 01:41:30;;;;;;;1.40;0.85;;;;;;;;;;5013146;28;20050;-49
2022/06/09 01:43:56;;;;;;;1.17;0.90;;;;;;;;;;5013260;28;20041;-49
2022/06/09 01:46:22;;;;;;;1.10;1.00;;;;;;;;;;5002780;28;20184;-49
2022/06/09 01:48:51;;;;;;;1.92;1.02;;;;;;;;;;4993694;28;20125;-52
2022/06/09 01:51:20;;;;;;;1.17;0.98;;;;;;;;;;5011839;28;20085;-51
2022/06/09 01:53:51;;;;;;;1.25;1.00;;;;;;;;;;4987634;28;20038;-49
2022/06/09 01:56:18;;;;;;;1.20;0.90;;;;;;;;;;4993104;28;20050;-50
2022/06/09 01:58:48;;;;;;;1.35;1.10;;;;;;;;;;4993348;28;20093;-49
2022/06/09 02:01:16;;;;;;;2.10;0.98;;;;;;;;;;5003851;28;20483;-49
2022/06/09 02:03:44;;;;;;;0.90;0.90;;;;;;;;;;4995745;28;20080;-56
2022/06/09 02:06:11;;;;;;;2.33;1.00;;;;;;;;;;5013177;28;20048;-49
2022/06/09 02:08:38;;;;;;;2.03;0.98;;;;;;;;;;5013299;28;20041;-50
2022/06/09 02:11:09;;;;;;;3.22;1.38;;;;;;;;;;4995926;28;20733;-50
2022/06/09 02:13:39;;;;;;;1.55;1.00;;;;;;;;;;4993541;28;20056;-53
2022/06/09 02:16:07;;;;;;;1.88;1.10;;;;;;;;;;5012097;28;20049;-49
2022/06/09 02:18:36;;;;;;;1.83;0.98;;;;;;;;;;5012555;28;20057;-52
2022/06/09 02:21:04;;;;;;;1.75;1.15;;;;;;;;;;5012018;28;20054;-49
2022/06/09 02:23:31;;;;;;;2.65;0.88;;;;;;;;;;5013080;28;20044;-49
2022/06/09 02:25:57;;;;;;;1.40;0.90;;;;;;;;;;5011035;28;20045;-49
2022/06/09 02:28:23;;;;;;;1.50;0.77;;;;;;;;;;4980182;28;20058;-51
2022/06/09 02:30:49;;;;;;;1.38;0.85;;;;;;;;;;4992771;28;20105;-52
2022/06/09 02:33:15;;;;;;;1.25;1.08;;;;;;;;;;4993529;28;20050;-52
2022/06/09 02:35:42;;;;;;;1.33;0.77;;;;;;;;;;4993059;28;20050;-49
2022/06/09 02:38:08;;;;;;;1.48;0.90;;;;;;;;;;4999801;28;20038;-49
2022/06/09 02:40:35;;;;;;;1.42;1.13;;;;;;;;;;5011422;28;20050;-50
2022/06/09 02:43:01;;;;;;;3.30;1.25;;;;;;;;;;5011793;28;20038;-49
2022/06/09 02:45:27;;;;;;;;;;;;;;;;;;5013186;28;20104;-51
2022/06/09 02:47:53;;;;;;;1.27;0.82;;;;;;;;;;4994759;28;19925;-52
2022/06/09 02:50:19;;;;;;;;;;;;;;;;;;5012933;28;20133;-49
2022/06/09 02:52:45;;;;;;;1.38;1.00;;;;;;;;;;5012675;28;20008;-49
2022/06/09 02:55:12;;;;;;;3.50;1.13;;;;;;;;;;5010554;28;20100;-52
2022/06/09 02:57:38;;;;;;;3.13;1.42;;;;;;;;;;4999537;28;20054;-49
2022/06/09 03:00:06;;;;;;;2.45;1.38;;;;;;;;;;4992267;28;20046;-49
2022/06/09 03:02:32;;;;;;;1.67;1.17;;;;;;;;;;4992939;28;20092;-50
2022/06/09 03:04:58;;;;;;;1.83;1.02;;;;;;;;;;4992054;28;20050;-49
2022/06/09 03:07:25;;;;;;;0.80;0.80;;;;;;;;;;4992335;28;20046;-50
2022/06/09 03:09:51;;;;;;;3.45;0.93;;;;;;;;;;4989873;28;20052;-50
2022/06/09 03:12:18;;;;;;;2.55;1.02;;;;;;;;;;4991664;28;20133;-50
2022/06/09 03:14:44;;;;;;;1.80;1.02;;;;;;;;;;5004811;28;20100;-49
2022/06/09 03:17:10;;;;;;;1.70;1.13;;;;;;;;;;5010384;28;20045;-50
2022/06/09 03:19:36;;;;;;;;;;;;;;;;;;5012418;28;20128;-50
2022/06/09 03:22:02;;;;;;;1.35;1.08;;;;;;;;;;5011504;28;20007;-51
2022/06/09 03:24:28;;;;;;;0.98;0.82;;;;;;;;;;5011184;28;20046;-50
2022/06/09 03:26:54;;;;;;;4.10;1.17;;;;;;;;;;5010567;28;20046;-50
2022/06/09 03:29:20;;;;;;;1.38;1.20;;;;;;;;;;5011258;28;20089;-51
2022/06/09 03:31:47;;;;;;;3.22;1.20;;;;;;;;;;5011565;28;20401;-51
2022/06/09 03:34:14;;;;;;;2.20;1.40;;;;;;;;;;5010595;28;20053;-52
2022/06/09 03:36:40;;;;;;;1.98;0.95;;;;;;;;;;5011444;28;20562;-49
2022/06/09 03:39:06;;;;;;;2.75;0.80;;;;;;;;;;5010298;28;20092;-49
2022/06/09 03:41:32;;;;;;;;;;;;;;;;;;5010468;28;20132;-49
2022/06/09 03:43:58;;;;;;;1.05;0.95;;;;;;;;;;5011087;28;20020;-49
2022/06/09 03:46:24;;;;;;;;;;;;;;;;;;5012113;28;20095;-52
2022/06/09 03:48:50;;;;;;;3.00;1.05;;;;;;;;;;5011301;28;19922;-55
2022/06/09 03:51:16;;;;;;;1.00;1.00;;;;;;;;;;4994639;28;20129;-49
2022/06/09 03:53:42;;;;;;;;;;;;;;;;;;4992034;28;20480;-50
2022/06/09 03:56:16;;;;;;;0.90;0.90;;;;;;;;;;4989535;28;20429;-51
2022/06/09 03:58:43;;;;;;;3.10;1.50;;;;;;;;;;4991552;28;20042;-49
2022/06/09 04:01:13;;;;;;;1.27;0.93;;;;;;;;;;4991562;28;20042;-50
2022/06/09 04:03:40;;;;;;;2.55;1.10;;;;;;;;;;5010940;28;20502;-50
2022/06/09 04:06:06;;;;;;;3.05;0.70;;;;;;;;;;5010411;28;20045;-49
2022/06/09 04:08:33;;;;;;;2.13;1.00;;;;;;;;;;5010250;28;20034;-49
2022/06/09 04:10:59;;;;;;;0.77;0.70;;;;;;;;;;5000890;28;20060;-50
2022/06/09 04:13:25;;;;;;;;;;;;;;;;;;4992084;28;20046;-49
2022/06/09 04:15:51;;;;;;;0.70;0.70;;;;;;;;;;4991488;28;19945;-51
2022/06/09 04:18:17;;;;;;;;;;;;;;;;;;4991462;28;20046;-50
2022/06/09 04:20:43;;;;;;;0.77;0.70;;;;;;;;;;4990890;28;20382;-49
2022/06/09 04:23:10;;;;;;;2.45;1.00;;;;;;;;;;4990938;28;20046;-52
2022/06/09 04:25:35;;;;;;;;;;;;;;;;;;4993148;28;20045;-51
2022/06/09 04:28:02;;;;;;;1.42;1.02;;;;;;;;;;5009624;28;19963;-51
2022/06/09 04:30:28;;;;;;;2.70;1.00;;;;;;;;;;5010467;28;20179;-51
2022/06/09 04:32:55;;;;;;;2.25;0.90;;;;;;;;;;5010609;28;20550;-56
2022/06/09 04:35:22;;;;;;;2.70;1.42;;;;;;;;;;5010705;28;20041;-49
2022/06/09 04:38:00;;;;;;;0.80;0.80;;;;;;;;;;5010783;28;20053;-49
2022/06/09 04:40:27;;;;;;;3.35;1.50;;;;;;;;;;5009427;28;20069;-50
2022/06/09 04:42:53;;;;;;;0.95;0.85;;;;;;;;;;4972982;28;20046;-51
2022/06/09 04:45:19;;;;;;;;;;;;;;;;;;4990954;28;20050;-50
2022/06/09 04:47:45;;;;;;;1.08;0.82;;;;;;;;;;4991148;28;20382;-50
2022/06/09 04:50:12;;;;;;;1.58;1.08;;;;;;;;;;4990391;28;20139;-49
2022/06/09 04:52:39;;;;;;;1.52;0.95;;;;;;;;;;4977354;28;20055;-50
2022/06/09 04:55:06;;;;;;;1.85;0.90;;;;;;;;;;4990783;28;20043;-50
2022/06/09 04:57:32;;;;;;;1.38;0.75;;;;;;;;;;4989982;28;20136;-50
2022/06/09 04:59:57;;;;;;;;;;;;;;;;;;4990828;28;20254;-56
2022/06/09 05:02:24;;;;;;;2.08;0.80;;;;;;;;;;4990869;28;19918;-51
2022/06/09 05:04:50;;;;;;;3.33;1.27;;;;;;;;;;4990708;28;20129;-50
2022/06/09 05:07:16;;;;;;;1.55;0.90;;;;;;;;;;4989877;28;20773;-50
2022/06/09 05:09:42;;;;;;;;;;;;;;;;;;4990271;28;20116;-50
2022/06/09 05:12:08;;;;;;;0.80;0.80;;;;;;;;;;4989554;28;19968;-52
2022/06/09 05:14:34;;;;;;;1.85;1.00;;;;;;;;;;4990419;28;20495;-52
2022/06/09 05:17:00;;;;;;;1.90;1.10;;;;;;;;;;4990621;28;20046;-56
2022/06/09 05:19:26;;;;;;;;;;;;;;;;;;4990951;28;20088;-49
2022/06/09 05:21:52;;;;;;;1.33;0.80;;;;;;;;;;4997270;28;19961;-50
2022/06/09 05:24:19;;;;;;;2.40;1.15;;;;;;;;;;4992432;28;20488;-49
2022/06/09 05:26:45;;;;;;;1.25;0.88;;;;;;;;;;4989867;28;20042;-51
2022/06/09 05:29:11;;;;;;;1.30;0.80;;;;;;;;;;4989552;28;20655;-50
2022/06/09 05:31:37;;;;;;;;;;;;;;;;;;4993795;28;20137;-50
2022/06/09 05:34:03;;;;;;;1.63;1.10;;;;;;;;;;5009874;28;20008;-56
2022/06/09 05:36:29;;;;;;;1.17;0.85;;;;;;;;;;4992856;28;20104;-49
2022/06/09 05:47:10;;;;;;;1.15;1.05;;;;;;;;;;4990132;28;20566;-50
2022/06/09 05:49:36;;;;;;;1.35;0.98;;;;;;;;;;4990404;28;20042;-49
2022/06/09 05:52:02;;;;;;;;;;;;;;;;;;4990827;28;20047;-50
2022/06/09 05:54:28;;;;;;;3.10;0.90;;;;;;;;;;4991629;28;20314;-51
2022/06/09 05:56:54;;;;;;;1.95;0.90;;;;;;;;;;4993118;28;20053;-49
2022/06/09 05:59:20;;;;;;;;;;;;;;;;;;4993722;28;20038;-50
2022/06/09 06:01:46;;;;;;;1.10;0.70;;;;;;;;;;4994119;28;20656;-49
2022/06/09 06:04:12;;;;;;;;;;;;;;;;;;5008863;28;20042;-49
2022/06/09 06:06:38;;;;;;;0.73;0.73;;;;;;;;;;5002716;28;20354;-49
2022/06/09 06:09:09;;;;;;;1.85;0.85;;;;;;;;;;5011713;28;20048;-49
2022/06/09 06:11:36;;;;;;;0.70;0.70;;;;;;;;;;5012920;28;20042;-50
2022/06/09 06:14:03;;;;;;;0.93;0.90;;;;;;;;;;4996560;28;20434;-49
2022/06/09 06:16:29;;;;;;;2.05;0.93;;;;;;;;;;5013498;28;20112;-52
2022/06/09 06:18:55;;;;;;;1.40;1.02;;;;;;;;;;5013661;28;20038;-51
2022/06/09 06:21:21;;;;;;;2.85;0.98;;;;;;;;;;5013251;28;20414;-52
2022/06/09 06:23:47;;;;;;;1.20;1.10;;;;;;;;;;5013806;28;20429;-49
2022/06/09 06:26:14;;;;;;;0.80;0.80;;;;;;;;;;4998008;28;20042;-53
2022/06/09 06:28:40;;;;;;;1.13;0.85;;;;;;;;;;5006241;28;20474;-51
2022/06/09 06:31:06;;;;;;;1.52;0.80;;;;;;;;;;4995579;28;20053;-50
2022/06/09 06:33:32;;;;;;;0.98;0.80;;;;;;;;;;5012845;28;20038;-51
2022/06/09 06:35:59;;;;;;;1.27;0.90;;;;;;;;;;5012703;28;20509;-50
2022/06/09 06:38:25;;;;;;;1.05;0.93;;;;;;;;;;5012563;28;20120;-49
2022/06/09 06:40:51;;;;;;;;;;;;;;;;;;5011638;28;20046;-50
2022/06/09 06:43:17;;;;;;;1.27;0.90;;;;;;;;;;5012774;28;19944;-55
2022/06/09 06:45:44;;;;;;;1.55;1.25;;;;;;;;;;5013248;28;20058;-53
2022/06/09 06:48:10;;;;;;;2.55;1.20;;;;;;;;;;5013283;28;20046;-61
2022/06/09 06:50:36;;;;;;;1.88;1.40;;;;;;;;;;5004900;28;20129;-50
2022/06/09 06:53:02;;;;;;;2.80;1.50;;;;;;;;;;5008467;28;20046;-54
2022/06/09 06:55:29;;;;;;;;;;;;;;;;;;4974741;28;20399;-57
2022/06/09 06:57:55;;;;;;;5.78;1.65;;;;;;;;;;4999487;28;19917;-55
2022/06/09 07:00:22;;;;;;;3.08;1.80;;;;;;;;;;5012302;28;20135;-53
2022/06/09 07:02:49;;;;;;;5.35;1.80;;;;;;;;;;5013132;28;20141;-55
2022/06/09 07:05:16;;;;;;;5.53;2.15;;;;;;;;;;5011594;28;20050;-58
2022/06/09 07:07:42;;;;;;;4.63;2.03;;;;;;;;;;5012798;28;20044;-57
2022/06/09 07:10:08;;;;;;;;;;;;;;;;;;5003253;28;20443;-57
2022/06/09 07:12:34;;;;;;;4.15;2.00;;;;;;;;;;4992014;28;19922;-55
2022/06/09 07:15:00;;;;;;;3.65;1.88;;;;;;;;;;4993035;28;20042;-55
2022/06/09 07:17:26;;;;;;;;;;;;;;;;;;4976067;28;20137;-57
2022/06/09 07:19:53;;;;;;;3.30;1.90;;;;;;;;;;4992919;28;20016;-57
2022/06/09 07:22:19;;;;;;;6.07;1.98;;;;;;;;;;4999803;28;20038;-57
2022/06/09 07:24:46;;;;;;;3.65;2.00;;;;;;;;;;4999268;28;20057;-56
2022/06/09 07:27:12;;;;;;;4.57;2.25;;;;;;;;;;5004363;28;20057;-56
2022/06/09 07:29:38;;;;;;;5.05;2.63;;;;;;;;;;4998566;28;20065;-57
2022/06/09 07:32:04;;;;;;;3.95;2.28;;;;;;;;;;5003548;28;20042;-57
2022/06/09 07:34:31;;;;;;;8.73;2.67;;;;;;;;;;4992641;28;20042;-57
2022/06/09 07:36:57;;;;;;;4.25;2.55;;;;;;;;;;4993715;28;20113;-57
2022/06/09 07:39:24;;;;;;;2.88;2.08;;;;;;;;;;4997633;28;20117;-58
2022/06/09 07:41:50;;;;;;;5.80;2.53;;;;;;;;;;4978399;28;20680;-54
2022/06/09 07:44:17;;;;;;;4.82;2.33;;;;;;;;;;4993387;28;20046;-57
2022/06/09 07:46:43;;;;;;;5.15;2.20;;;;;;;;;;4999357;28;20042;-55
2022/06/09 07:49:09;;;;;;;;;;;;;;;;;;5010529;28;20834;-55
2022/06/09 07:51:35;;;;;;;4.07;2.38;;;;;;;;;;4994265;28;19925;-54
2022/06/09 07:54:01;;;;;;;3.85;2.13;;;;;;;;;;4995479;28;20117;-56
2022/06/09 07:56:28;;;;;;;5.53;2.05;;;;;;;;;;4980375;28;20379;-55
2022/06/09 07:58:54;;;;;;;4.97;2.08;;;;;;;;;;5009159;28;20884;-53
2022/06/09 08:01:22;;;;;;;;;;;;;;;;;;5011401;28;20686;-59
2022/06/09 08:03:48;;;;;;;4.05;2.05;;;;;;;;;;5001594;28;20394;-57
2022/06/09 08:06:15;;;;;;;3.70;2.05;;;;;;;;;;5007310;28;20050;-54
2022/06/09 08:08:41;;;;;;;4.50;1.90;;;;;;;;;;5010965;28;20104;-53
2022/06/09 08:11:09;;;;;;;4.63;2.00;;;;;;;;;;5008237;28;20061;-54
2022/06/09 08:13:36;;;;;;;4.53;1.88;;;;;;;;;;4973632;28;20046;-57
2022/06/09 08:16:02;;;;;;;3.58;1.77;;;;;;;;;;4991951;28;20046;-54
2022/06/09 08:18:28;;;;;;;4.40;2.00;;;;;;;;;;4991126;28;20042;-55
2022/06/09 08:20:55;;;;;;;4.65;2.30;;;;;;;;;;4988028;28;20050;-55
2022/06/09 08:23:23;;;;;;;5.35;2.10;;;;;;;;;;4993641;28;20042;-60
2022/06/09 08:25:50;;;;;;;7.43;2.25;;;;;;;;;;5009614;28;20180;-54
2022/06/09 08:28:18;;;;;;;4.65;2.05;;;;;;;;;;5005478;28;20064;-54
2022/06/09 08:30:45;;;;;;;6.35;2.22;;;;;;;;;;5003889;28;20046;-58
2022/06/09 08:33:11;;;;;;;5.18;2.15;;;;;;;;;;5001161;28;20406;-55
2022/06/09 08:35:37;;;;;;;5.13;1.92;;;;;;;;;;4997459;28;20112;-57
2022/06/09 08:38:04;;;;;;;5.40;1.80;;;;;;;;;;4996055;28;20038;-54
2022/06/09 08:40:33;;;;;;;3.05;1.77;;;;;;;;;;4998953;28;20475;-54
2022/06/09 08:43:02;;;;;;;2.30;1.42;;;;;;;;;;5001336;28;20395;-57
2022/06/09 08:45:31;;;;;;;2.38;1.55;;;;;;;;;;4997582;28;20175;-57
2022/06/09 08:47:59;;;;;;;4.72;1.50;;;;;;;;;;5003396;28;20038;-58
2022/06/09 08:50:25;;;;;;;6.40;2.58;;;;;;;;;;5009146;28;20042;-61
2022/06/09 08:52:51;;;;;;;;;;;;;;;;;;5011430;28;20088;-58
2022/06/09 08:55:20;;;;;;;4.63;2.03;;;;;;;;;;5010128;28;19917;-58
2022/06/09 08:57:47;;;;;;;3.63;2.25;;;;;;;;;;5003969;28;20050;-55
2022/06/09 09:00:16;;;;;;;6.60;2.67;;;;;;;;;;5004771;28;20045;-61
2022/06/09 09:02:46;;;;;;;7.65;2.05;;;;;;;;;;5010454;28;20084;-58
2022/06/09 09:05:19;;;;;;;4.95;1.92;;;;;;;;;;5010739;28;20108;-58
2022/06/09 09:07:49;;;;;;;4.65;1.90;;;;;;;;;;5010269;28;20349;-57
2022/06/09 09:10:15;;;;;;;3.65;1.83;;;;;;;;;;4992526;28;20375;-58
2022/06/09 09:12:44;;;;;;;4.88;2.10;;;;;;;;;;5009219;28;20034;-58
2022/06/09 09:15:17;;;;;;;4.18;2.00;;;;;;;;;;5010670;28;20048;-56
2022/06/09 09:17:47;;;;;;;3.65;2.05;;;;;;;;;;5010015;28;20038;-58
2022/06/09 09:20:16;;;;;;;4.90;2.17;;;;;;;;;;5010676;28;20124;-58
2022/06/09 09:23:03;;;;;;;6.03;2.40;;;;;;;;;;5008078;28;20056;-56
2022/06/09 09:25:47;;;;;;;2.13;1.42;;;;;;;;;;4980131;28;20062;-62
2022/06/09 09:28:22;;;;;;;4.72;1.48;;;;;;;;;;5001586;28;20052;-58
2022/06/09 09:31:00;;;;;;;2.85;1.30;;;;;;;;;;4987795;28;20641;-58
2022/06/09 09:33:27;;;;;;;3.40;1.60;;;;;;;;;;5004195;28;20112;-57
2022/06/09 09:35:56;;;;;;;3.67;1.52;;;;;;;;;;5004345;28;20047;-58
2022/06/09 09:38:23;;;;;;;3.80;1.60;;;;;;;;;;5014380;28;20038;-55
2022/06/09 09:40:50;;;;;;;3.45;1.52;;;;;;;;;;5010952;28;20049;-55
2022/06/09 09:43:25;;;;;;;2.35;1.50;;;;;;;;;;5013967;28;20041;-55
2022/06/09 09:45:55;;;;;;;5.07;1.70;;;;;;;;;;5010156;28;20058;-55
2022/06/09 09:48:21;;;;;;;5.07;1.60;;;;;;;;;;5008590;28;20033;-57
2022/06/09 09:50:48;;;;;;;;;;;;;;;;;;5012069;28;20485;-55
2022/06/09 09:53:19;;;;;;;3.72;1.70;;;;;;;;;;5014092;28;20000;-54
2022/06/09 09:55:55;;;;;;;3.72;1.45;;;;;;;;;;5012183;28;20112;-58
2022/06/09 09:58:21;;;;;;;3.55;1.55;;;;;;;;;;5013846;28;20049;-55
2022/06/09 10:00:47;;;;;;;;;;;;;;;;;;5013309;28;20073;-58
2022/06/09 10:08:52;;;;;;;5.03;1.73;;;;;;;;;;5012813;28;20065;-59
2022/06/09 10:14:34;;;;;;;4.60;1.52;;;;;;;;;;5004236;28;20076;-57
2022/06/09 10:17:01;;;;;;;3.42;1.38;;;;;;;;;;5012800;28;20038;-55
2022/06/09 10:19:28;;;;;;;1.48;1.20;;;;;;;;;;5013317;28;20044;-57
2022/06/09 10:22:01;;;;;;;3.85;1.95;;;;;;;;;;5007360;28;20395;-55
2022/06/09 10:25:00;;;;;;;2.83;1.33;;;;;;;;;;5012125;28;20483;-54
2022/06/09 10:27:29;;;;;;;4.05;1.42;;;;;;;;;;4955483;28;20045;-57
2022/06/09 10:29:55;;;;;;;2.60;1.33;;;;;;;;;;5012096;28;20049;-57
2022/06/09 10:32:24;;;;;;;2.15;1.40;;;;;;;;;;5010766;28;21312;-56
2022/06/09 10:34:59;;;;;;;3.90;1.40;;;;;;;;;;5008759;28;20041;-57
2022/06/09 10:37:31;;;;;;;4.78;1.58;;;;;;;;;;5012861;28;20045;-55
2022/06/09 10:40:02;;;;;;;3.40;1.25;;;;;;;;;;4992857;28;20045;-57
2022/06/09 10:42:34;;;;;;;2.65;1.20;;;;;;;;;;5009348;28;20037;-54
2022/06/09 10:45:00;;;;;;;3.42;1.63;;;;;;;;;;4978883;28;20072;-55
2022/06/09 10:56:27;;;;;;;2.15;1.10;;;;;;;;;;5005235;28;20088;-55
2022/06/09 10:58:56;;;;;;;2.05;1.00;;;;;;;;;;5000788;28;20034;-55
2022/06/09 11:01:25;;;;;;;1.45;1.00;;;;;;;;;;5012347;28;20053;-54
2022/06/09 11:03:51;;;;;;;2.20;1.02;;;;;;;;;;4995498;28;20042;-57
2022/06/09 11:06:24;;;;;;;3.30;1.20;;;;;;;;;;5012064;28;20907;-57
2022/06/09 11:08:50;;;;;;;2.30;0.90;;;;;;;;;;5011507;28;20042;-59
2022/06/09 11:11:16;;;;;;;;;;;;;;;;;;5010315;28;20046;-55
2022/06/09 11:13:57;;;;;;;2.63;1.02;;;;;;;;;;5002908;28;20040;-56
2022/06/09 11:16:23;;;;;;;1.00;0.90;;;;;;;;;;5012749;28;20050;-55
2022/06/09 11:18:49;;;;;;;;;;;;;;;;;;5011765;28;20403;-59
2022/06/09 11:21:35;;;;;;;2.33;0.93;;;;;;;;;;5009281;28;19922;-54
2022/06/09 11:24:07;;;;;;;1.88;1.00;;;;;;;;;;5006045;28;20124;-58
2022/06/09 11:26:38;;;;;;;2.67;1.15;;;;;;;;;;5011543;28;20045;-57
2022/06/09 11:29:07;;;;;;;0.90;0.90;;;;;;;;;;5011737;28;20065;-57
2022/06/09 11:31:52;;;;;;;2.38;1.00;;;;;;;;;;5012325;28;20045;-55
2022/06/09 11:34:30;;;;;;;1.10;0.85;;;;;;;;;;4982732;28;20365;-54
2022/06/09 11:36:56;;;;;;;3.75;1.02;;;;;;;;;;5004153;28;20113;-56
2022/06/09 11:39:30;;;;;;;2.13;1.10;;;;;;;;;;5005937;28;20096;-58
2022/06/09 11:41:56;;;;;;;1.05;0.95;;;;;;;;;;5009526;28;20048;-55
2022/06/09 11:44:23;;;;;;;2.22;1.13;;;;;;;;;;5010618;28;20049;-56
2022/06/09 11:46:51;;;;;;;1.10;1.00;;;;;;;;;;5010002;28;20049;-55
2022/06/09 11:49:22;;;;;;;2.20;1.00;;;;;;;;;;5004011;28;20116;-57
2022/06/09 11:51:48;;;;;;;1.55;1.05;;;;;;;;;;4998002;28;20080;-57
2022/06/09 11:54:33;;;;;;;1.27;0.95;;;;;;;;;;5006151;28;20061;-58
2022/06/09 11:57:17;;;;;;;1.70;1.20;;;;;;;;;;5004882;28;20046;-54
2022/06/09 12:00:00;;;;;;;0.85;0.80;;;;;;;;;;4990839;28;20107;-60
2022/06/09 12:02:29;;;;;;;3.63;0.90;;;;;;;;;;5009692;28;20052;-58
2022/06/09 12:04:58;;;;;;;1.48;0.77;;;;;;;;;;5011037;28;20046;-56
2022/06/09 12:07:43;;;;;;;0.80;0.80;;;;;;;;;;5011662;28;20052;-54
2022/06/09 12:10:12;;;;;;;3.20;1.13;;;;;;;;;;5010319;28;20042;-55
2022/06/09 12:12:39;;;;;;;1.85;0.77;;;;;;;;;;5010693;28;20255;-57
2022/06/09 12:15:08;;;;;;;1.17;0.90;;;;;;;;;;4974793;28;20042;-54
2022/06/09 12:17:35;;;;;;;2.00;0.80;;;;;;;;;;5003483;28;20475;-55
2022/06/09 12:20:08;;;;;;;2.63;0.63;;;;;;;;;;5010748;28;20117;-57
2022/06/09 12:22:39;;;;;;;1.77;0.80;;;;;;;;;;5011374;28;20046;-55
2022/06/09 12:25:10;;;;;;;1.52;0.75;;;;;;;;;;5002980;28;20489;-57
2022/06/09 12:27:40;;;;;;;0.65;0.65;;;;;;;;;;5010567;28;20057;-55
2022/06/09 12:30:24;;;;;;;0.77;0.77;;;;;;;;;;5010287;28;20042;-55
2022/06/09 12:32:51;;;;;;;0.65;0.65;;;;;;;;;;5010830;28;20052;-56
2022/06/09 12:35:29;;;;;;;1.52;0.73;;;;;;;;;;5011333;28;20045;-57
2022/06/09 12:37:58;;;;;;;0.88;0.70;;;;;;;;;;4993496;28;20056;-57
2022/06/09 12:40:32;;;;;;;1.73;0.75;;;;;;;;;;5003895;28;20046;-57
2022/06/09 12:43:01;;;;;;;1.30;1.05;;;;;;;;;;4995885;28;20132;-57
2022/06/09 12:45:27;;;;;;;1.13;0.80;;;;;;;;;;4990480;28;20057;-52
2022/06/09 12:48:08;;;;;;;2.00;1.10;;;;;;;;;;4991234;28;20086;-53
2022/06/09 12:50:35;;;;;;;1.98;0.77;;;;;;;;;;4991445;28;20049;-54
2022/06/09 12:53:04;;;;;;;1.50;0.70;;;;;;;;;;4991135;28;20042;-54
2022/06/09 12:55:35;;;;;;;0.60;0.60;;;;;;;;;;4990103;28;20507;-54
2022/06/09 12:58:06;;;;;;;2.88;0.70;;;;;;;;;;4990616;28;20046;-52
2022/06/09 13:00:35;;;;;;;4.03;1.10;;;;;;;;;;4991321;28;20052;-54
2022/06/09 13:03:01;;;;;;;1.17;0.77;;;;;;;;;;4990375;28;20047;-53
2022/06/09 13:05:32;;;;;;;0.73;0.70;;;;;;;;;;5002426;28;20046;-54
2022/06/09 13:08:19;;;;;;;0.95;0.75;;;;;;;;;;4991058;28;20109;-58
2022/06/09 13:11:06;;;;;;;2.92;0.82;;;;;;;;;;4989294;28;20559;-56
2022/06/09 13:13:40;;;;;;;0.85;0.55;;;;;;;;;;4991039;28;20427;-55
2022/06/09 13:16:17;;;;;;;1.27;0.80;;;;;;;;;;5007595;28;20368;-54
2022/06/09 13:18:45;;;;;;;2.00;1.00;;;;;;;;;;5010097;28;20108;-53
2022/06/09 13:21:17;;;;;;;2.75;0.82;;;;;;;;;;5009100;28;20890;-54
2022/06/09 13:23:45;;;;;;;2.42;0.70;;;;;;;;;;5007723;28;20037;-54
2022/06/09 13:26:16;;;;;;;1.88;0.80;;;;;;;;;;5005027;28;20369;-58
2022/06/09 13:28:46;;;;;;;1.25;0.50;;;;;;;;;;5008717;28;20048;-55
2022/06/09 13:31:30;;;;;;;2.47;0.65;;;;;;;;;;5009321;28;20260;-58
2022/06/09 13:34:02;;;;;;;3.13;0.90;;;;;;;;;;5008717;28;20077;-53
2022/06/09 13:36:28;;;;;;;1.13;0.75;;;;;;;;;;5009211;28;20483;-55
2022/06/09 13:38:55;;;;;;;0.77;0.47;;;;;;;;;;5006043;28;20077;-60
2022/06/09 13:41:31;;;;;;;2.22;0.70;;;;;;;;;;5008812;28;20045;-57
2022/06/09 13:43:59;;;;;;;2.58;0.93;;;;;;;;;;5009386;28;20129;-56
2022/06/09 13:46:27;;;;;;;2.35;0.80;;;;;;;;;;5009579;28;20042;-55
2022/06/09 13:48:59;;;;;;;1.13;0.77;;;;;;;;;;5009195;28;20038;-60
2022/06/09 13:51:27;;;;;;;1.60;0.90;;;;;;;;;;5006298;28;20129;-56
2022/06/09 13:54:10;;;;;;;1.02;0.50;;;;;;;;;;5005424;28;20103;-59
2022/06/09 13:56:36;;;;;;;1.55;0.98;;;;;;;;;;5008085;28;20081;-54
2022/06/09 13:59:02;;;;;;;3.80;0.88;;;;;;;;;;4990443;28;20121;-57
2022/06/09 14:01:29;;;;;;;2.53;0.90;;;;;;;;;;5008744;28;20132;-55
2022/06/09 14:03:56;;;;;;;3.83;0.60;;;;;;;;;;5008646;28;20042;-57
2022/06/09 14:06:23;;;;;;;1.40;0.70;;;;;;;;;;5008484;28;20061;-56
2022/06/09 14:08:51;;;;;;;0.70;0.70;;;;;;;;;;5004382;28;20362;-58
2022/06/09 14:11:35;;;;;;;1.73;0.70;;;;;;;;;;5003307;28;20049;-55
2022/06/09 14:14:02;;;;;;;0.57;0.55;;;;;;;;;;5004600;28;20364;-56
2022/06/09 14:16:35;;;;;;;1.17;0.80;;;;;;;;;;5011625;28;20045;-54
2022/06/09 14:19:02;;;;;;;0.60;0.60;;;;;;;;;;5009827;28;20041;-57
2022/06/09 14:21:29;;;;;;;1.63;0.63;;;;;;;;;;5012046;28;20180;-58
2022/06/09 14:23:56;;;;;;;2.55;0.60;;;;;;;;;;4994469;28;20050;-54
2022/06/09 14:26:24;;;;;;;1.63;0.82;;;;;;;;;;4994960;28;20099;-55
2022/06/09 14:28:51;;;;;;;0.70;0.65;;;;;;;;;;5013332;28;20058;-55
2022/06/09 14:31:18;;;;;;;0.55;0.55;;;;;;;;;;5013264;28;20054;-54
2022/06/09 14:33:44;;;;;;;3.35;0.80;;;;;;;;;;5010363;28;20121;-58
2022/06/09 14:36:12;;;;;;;1.25;0.55;;;;;;;;;;5010281;28;20080;-56
2022/06/09 14:38:38;;;;;;;0.65;0.57;;;;;;;;;;5008878;28;20130;-55
2022/06/09 14:41:04;;;;;;;2.20;0.73;;;;;;;;;;4991665;28;20100;-54
2022/06/09 14:43:31;;;;;;;1.48;0.80;;;;;;;;;;5010362;28;20546;-57
2022/06/09 14:45:58;;;;;;;1.15;0.60;;;;;;;;;;5005146;28;20052;-56
2022/06/09 14:48:25;;;;;;;1.45;0.70;;;;;;;;;;4993284;28;20130;-56
2022/06/09 14:50:53;;;;;;;2.25;0.90;;;;;;;;;;4993468;28;20077;-54
2022/06/09 14:53:19;;;;;;;1.40;0.70;;;;;;;;;;4993043;28;20524;-55
2022/06/09 14:55:47;;;;;;;1.05;0.50;;;;;;;;;;4996846;28;20056;-54
2022/06/09 14:58:14;;;;;;;2.08;0.95;;;;;;;;;;5005103;28;20113;-58
2022/06/09 15:00:40;;;;;;;0.90;0.50;;;;;;;;;;4994423;28;20042;-55
2022/06/09 15:03:07;;;;;;;1.75;0.90;;;;;;;;;;4993066;28;20129;-54
2022/06/09 15:05:33;;;;;;;0.70;0.45;;;;;;;;;;4998403;28;20116;-53
2022/06/09 15:07:59;;;;;;;0.77;0.70;;;;;;;;;;5005947;28;20140;-53
2022/06/09 15:10:29;;;;;;;1.13;0.60;;;;;;;;;;4998699;28;20073;-54
2022/06/09 15:12:56;;;;;;;2.05;0.70;;;;;;;;;;4993351;28;20046;-54
2022/06/09 15:15:25;;;;;;;0.98;0.88;;;;;;;;;;4992468;28;20060;-55
2022/06/09 15:17:53;;;;;;;1.10;0.75;;;;;;;;;;5007560;28;20042;-54
2022/06/09 15:20:27;;;;;;;0.88;0.47;;;;;;;;;;4995166;28;20057;-55
2022/06/09 15:22:53;;;;;;;3.67;0.60;;;;;;;;;;5001379;28;20107;-57
2022/06/09 15:25:19;;;;;;;0.50;0.50;;;;;;;;;;5000879;28;20132;-57
2022/06/09 15:27:45;;;;;;;1.65;0.70;;;;;;;;;;5010709;28;20438;-53